KFHU/FHU METAR and TAF weather

Enter ICAO airport designator
Station Type Date Time Source
KFHU METAR 2020/09/19 05:58 UTC NOAA

KFHU 190558Z AUTO 14009KT 10SM CLR 21/05 A3019 RMK AO2 SLP148 T02070051 10296 20207 50005


Station Type Date Time Source
KFHU Decoded METAR 2020/09/19 05:58 UTC NOAA

Fort Huachuca, Libby AAF Ft Huachuca, AZ, United States (KFHU) 46-98N 110-20W
Sep 19, 2020 - 01:58 AM EDT / 2020.09.19 0558 UTC
Wind: from the SE (140 degrees) at 10 MPH (9 KT):0
Visibility: 10 mile(s):0
Sky conditions: clear
Temperature: 69.3 F (20.7 C)
Dew Point: 41.2 F (5.1 C)
Relative Humidity: 35%
Pressure (altimeter): 30.19 in. Hg (1022 hPa)
Pressure tendency: 0.01 inches (0.5 hPa) higher than three hours ago
ob: KFHU 190558Z AUTO 14009KT 10SM CLR 21/05 A3019 RMK AO2 SLP148 T02070051 10296 20207 50005
cycle: 6

Station Type Date Time Source
KFHU TAF 2020/09/18 22:03 UTC NOAA

TAF KFHU 182200Z 1822/2004 10012G20KT 9999 FEW080 510005 QNH3014INS
TEMPO 1822/1901 10015G28KT 520005
BECMG 1903/1904 12009KT 9999 BKN070 QNH3018INS
BECMG 1906/1907 11008KT 9999 FEW060 QNH3017INS
BECMG 1916/1917 11012G23KT 9999 SKC 510005 QNH3011INS TX31/1922Z TN16/1911Z LAST NO
AMDS AFT 1906 NEXT 2106

Example: see airport list